sensor_id;sensor_type;location;lat;lon;timestamp;P1;durP1;ratioP1;P2;durP2;ratioP2
53666;SDS011;39568;51.026;5.468;2022-11-20T00:00:41;33.00;;;18.63;;
53666;SDS011;39568;51.026;5.468;2022-11-20T00:03:15;33.33;;;18.85;;
53666;SDS011;39568;51.026;5.468;2022-11-20T00:05:43;34.08;;;18.98;;
53666;SDS011;39568;51.026;5.468;2022-11-20T00:08:10;31.85;;;18.67;;
53666;SDS011;39568;51.026;5.468;2022-11-20T00:10:37;34.47;;;19.02;;
53666;SDS011;39568;51.026;5.468;2022-11-20T00:13:06;35.10;;;19.00;;
53666;SDS011;39568;51.026;5.468;2022-11-20T00:15:33;30.77;;;19.38;;
53666;SDS011;39568;51.026;5.468;2022-11-20T00:18:00;31.75;;;19.23;;
53666;SDS011;39568;51.026;5.468;2022-11-20T00:20:27;30.02;;;18.98;;
53666;SDS011;39568;51.026;5.468;2022-11-20T00:22:54;29.25;;;18.50;;
53666;SDS011;39568;51.026;5.468;2022-11-20T00:25:21;28.83;;;19.17;;
53666;SDS011;39568;51.026;5.468;2022-11-20T00:27:47;36.33;;;18.92;;
53666;SDS011;39568;51.026;5.468;2022-11-20T00:30:15;31.90;;;18.20;;
53666;SDS011;39568;51.026;5.468;2022-11-20T00:32:51;32.58;;;19.63;;
53666;SDS011;39568;51.026;5.468;2022-11-20T00:35:18;38.80;;;18.85;;
53666;SDS011;39568;51.026;5.468;2022-11-20T00:37:44;32.33;;;19.02;;
53666;SDS011;39568;51.026;5.468;2022-11-20T00:40:11;37.35;;;18.52;;
53666;SDS011;39568;51.026;5.468;2022-11-20T00:42:38;31.85;;;19.13;;
53666;SDS011;39568;51.026;5.468;2022-11-20T00:45:08;30.90;;;19.02;;
53666;SDS011;39568;51.026;5.468;2022-11-20T00:47:38;30.85;;;16.42;;
53666;SDS011;39568;51.026;5.468;2022-11-20T00:50:07;41.63;;;19.08;;
53666;SDS011;39568;51.026;5.468;2022-11-20T00:52:46;31.23;;;17.00;;
53666;SDS011;39568;51.026;5.468;2022-11-20T00:55:13;29.33;;;17.80;;
53666;SDS011;39568;51.026;5.468;2022-11-20T00:57:40;26.90;;;16.65;;
53666;SDS011;39568;51.026;5.468;2022-11-20T01:00:07;35.00;;;18.73;;
53666;SDS011;39568;51.026;5.468;2022-11-20T01:02:34;31.00;;;18.80;;
53666;SDS011;39568;51.026;5.468;2022-11-20T01:05:02;34.38;;;19.33;;
53666;SDS011;39568;51.026;5.468;2022-11-20T01:07:29;37.47;;;19.63;;
53666;SDS011;39568;51.026;5.468;2022-11-20T01:09:56;42.58;;;21.35;;
53666;SDS011;39568;51.026;5.468;2022-11-20T01:12:23;37.83;;;20.60;;
53666;SDS011;39568;51.026;5.468;2022-11-20T01:14:49;34.28;;;18.95;;
53666;SDS011;39568;51.026;5.468;2022-11-20T01:17:26;34.70;;;18.65;;
53666;SDS011;39568;51.026;5.468;2022-11-20T01:19:53;30.80;;;18.70;;
53666;SDS011;39568;51.026;5.468;2022-11-20T01:22:21;29.77;;;17.00;;
53666;SDS011;39568;51.026;5.468;2022-11-20T01:24:48;30.90;;;15.32;;
53666;SDS011;39568;51.026;5.468;2022-11-20T01:27:15;36.63;;;16.27;;
53666;SDS011;39568;51.026;5.468;2022-11-20T01:29:41;28.25;;;17.60;;
53666;SDS011;39568;51.026;5.468;2022-11-20T01:32:08;35.00;;;16.98;;
53666;SDS011;39568;51.026;5.468;2022-11-20T01:34:34;37.08;;;19.80;;
53666;SDS011;39568;51.026;5.468;2022-11-20T01:37:05;31.63;;;17.10;;
53666;SDS011;39568;51.026;5.468;2022-11-20T01:39:33;33.08;;;18.30;;
53666;SDS011;39568;51.026;5.468;2022-11-20T01:42:00;32.53;;;18.70;;
53666;SDS011;39568;51.026;5.468;2022-11-20T01:44:54;28.75;;;17.20;;
53666;SDS011;39568;51.026;5.468;2022-11-20T01:47:25;34.60;;;18.05;;
53666;SDS011;39568;51.026;5.468;2022-11-20T01:49:56;34.42;;;18.27;;
53666;SDS011;39568;51.026;5.468;2022-11-20T01:52:30;34.55;;;17.08;;
53666;SDS011;39568;51.026;5.468;2022-11-20T01:57:32;32.15;;;18.70;;
53666;SDS011;39568;51.026;5.468;2022-11-20T02:00:02;25.30;;;16.70;;
53666;SDS011;39568;51.026;5.468;2022-11-20T02:02:33;35.28;;;21.42;;
53666;SDS011;39568;51.026;5.468;2022-11-20T02:05:02;30.90;;;16.63;;
53666;SDS011;39568;51.026;5.468;2022-11-20T02:07:40;41.20;;;19.67;;
53666;SDS011;39568;51.026;5.468;2022-11-20T02:10:09;30.85;;;17.25;;
53666;SDS011;39568;51.026;5.468;2022-11-20T02:12:36;36.97;;;18.70;;
53666;SDS011;39568;51.026;5.468;2022-11-20T02:15:20;32.63;;;19.17;;
53666;SDS011;39568;51.026;5.468;2022-11-20T02:17:47;40.28;;;19.92;;
53666;SDS011;39568;51.026;5.468;2022-11-20T02:20:14;32.55;;;18.42;;
53666;SDS011;39568;51.026;5.468;2022-11-20T02:22:42;32.83;;;19.40;;
53666;SDS011;39568;51.026;5.468;2022-11-20T02:25:16;29.85;;;18.60;;
53666;SDS011;39568;51.026;5.468;2022-11-20T02:27:43;40.13;;;20.75;;
53666;SDS011;39568;51.026;5.468;2022-11-20T02:30:10;33.47;;;18.83;;
53666;SDS011;39568;51.026;5.468;2022-11-20T02:32:38;32.72;;;18.17;;
53666;SDS011;39568;51.026;5.468;2022-11-20T02:35:08;43.60;;;19.92;;
53666;SDS011;39568;51.026;5.468;2022-11-20T02:38:00;32.22;;;17.75;;
53666;SDS011;39568;51.026;5.468;2022-11-20T02:40:31;31.75;;;18.52;;
53666;SDS011;39568;51.026;5.468;2022-11-20T02:42:58;34.67;;;17.02;;
53666;SDS011;39568;51.026;5.468;2022-11-20T02:45:25;33.55;;;17.92;;
53666;SDS011;39568;51.026;5.468;2022-11-20T02:47:52;32.42;;;19.30;;
53666;SDS011;39568;51.026;5.468;2022-11-20T02:50:35;32.38;;;17.27;;
53666;SDS011;39568;51.026;5.468;2022-11-20T02:53:04;34.95;;;18.10;;
53666;SDS011;39568;51.026;5.468;2022-11-20T02:55:31;29.05;;;17.77;;
53666;SDS011;39568;51.026;5.468;2022-11-20T02:57:58;34.42;;;17.85;;
53666;SDS011;39568;51.026;5.468;2022-11-20T03:00:24;29.35;;;17.90;;
53666;SDS011;39568;51.026;5.468;2022-11-20T03:02:51;36.97;;;21.30;;
53666;SDS011;39568;51.026;5.468;2022-11-20T03:05:17;31.60;;;19.23;;
53666;SDS011;39568;51.026;5.468;2022-11-20T03:07:44;39.08;;;18.52;;
53666;SDS011;39568;51.026;5.468;2022-11-20T03:10:18;34.88;;;18.88;;
53666;SDS011;39568;51.026;5.468;2022-11-20T03:12:45;32.70;;;17.17;;
53666;SDS011;39568;51.026;5.468;2022-11-20T03:15:12;30.92;;;19.08;;
53666;SDS011;39568;51.026;5.468;2022-11-20T03:17:38;35.25;;;18.75;;
53666;SDS011;39568;51.026;5.468;2022-11-20T03:20:14;44.22;;;19.42;;
53666;SDS011;39568;51.026;5.468;2022-11-20T03:22:41;37.42;;;20.25;;
53666;SDS011;39568;51.026;5.468;2022-11-20T03:25:08;32.05;;;18.50;;
53666;SDS011;39568;51.026;5.468;2022-11-20T03:27:36;34.00;;;19.20;;
53666;SDS011;39568;51.026;5.468;2022-11-20T03:30:03;27.95;;;17.30;;
53666;SDS011;39568;51.026;5.468;2022-11-20T03:32:30;30.73;;;18.20;;
53666;SDS011;39568;51.026;5.468;2022-11-20T03:35:05;30.52;;;16.88;;
53666;SDS011;39568;51.026;5.468;2022-11-20T03:37:32;34.97;;;17.85;;
53666;SDS011;39568;51.026;5.468;2022-11-20T03:39:59;32.65;;;18.85;;
53666;SDS011;39568;51.026;5.468;2022-11-20T03:42:29;34.63;;;17.95;;
53666;SDS011;39568;51.026;5.468;2022-11-20T03:45:12;38.63;;;19.90;;
53666;SDS011;39568;51.026;5.468;2022-11-20T03:47:39;34.55;;;19.17;;
53666;SDS011;39568;51.026;5.468;2022-11-20T03:50:06;32.50;;;18.83;;
53666;SDS011;39568;51.026;5.468;2022-11-20T03:52:52;32.13;;;19.33;;
53666;SDS011;39568;51.026;5.468;2022-11-20T03:55:19;35.38;;;20.02;;
53666;SDS011;39568;51.026;5.468;2022-11-20T03:57:46;31.92;;;18.95;;
53666;SDS011;39568;51.026;5.468;2022-11-20T04:02:44;35.92;;;17.65;;
53666;SDS011;39568;51.026;5.468;2022-11-20T04:05:10;32.40;;;19.10;;
53666;SDS011;39568;51.026;5.468;2022-11-20T04:07:37;37.63;;;19.88;;
53666;SDS011;39568;51.026;5.468;2022-11-20T04:10:14;34.10;;;19.70;;
53666;SDS011;39568;51.026;5.468;2022-11-20T04:12:40;31.35;;;18.70;;
53666;SDS011;39568;51.026;5.468;2022-11-20T04:15:07;31.10;;;18.65;;
53666;SDS011;39568;51.026;5.468;2022-11-20T04:17:36;34.97;;;18.77;;
53666;SDS011;39568;51.026;5.468;2022-11-20T04:20:03;28.38;;;18.38;;
53666;SDS011;39568;51.026;5.468;2022-11-20T04:22:30;35.58;;;18.88;;
53666;SDS011;39568;51.026;5.468;2022-11-20T04:24:57;41.35;;;21.60;;
53666;SDS011;39568;51.026;5.468;2022-11-20T04:27:24;31.55;;;17.13;;
53666;SDS011;39568;51.026;5.468;2022-11-20T04:29:50;36.45;;;19.23;;
53666;SDS011;39568;51.026;5.468;2022-11-20T04:32:20;37.45;;;18.15;;
53666;SDS011;39568;51.026;5.468;2022-11-20T04:34:49;32.85;;;18.58;;
53666;SDS011;39568;51.026;5.468;2022-11-20T04:37:23;33.65;;;19.15;;
53666;SDS011;39568;51.026;5.468;2022-11-20T04:39:50;30.20;;;17.48;;
53666;SDS011;39568;51.026;5.468;2022-11-20T04:42:16;32.55;;;19.70;;
53666;SDS011;39568;51.026;5.468;2022-11-20T04:44:55;32.97;;;17.98;;
53666;SDS011;39568;51.026;5.468;2022-11-20T04:47:22;30.95;;;19.15;;
53666;SDS011;39568;51.026;5.468;2022-11-20T04:49:51;31.42;;;17.65;;
53666;SDS011;39568;51.026;5.468;2022-11-20T04:52:17;35.47;;;19.85;;
53666;SDS011;39568;51.026;5.468;2022-11-20T04:54:44;33.80;;;18.98;;
53666;SDS011;39568;51.026;5.468;2022-11-20T04:57:18;36.88;;;18.83;;
53666;SDS011;39568;51.026;5.468;2022-11-20T04:59:45;36.95;;;18.55;;
53666;SDS011;39568;51.026;5.468;2022-11-20T05:02:11;41.78;;;21.75;;
53666;SDS011;39568;51.026;5.468;2022-11-20T05:04:38;38.72;;;22.02;;
53666;SDS011;39568;51.026;5.468;2022-11-20T05:07:10;33.05;;;19.77;;
53666;SDS011;39568;51.026;5.468;2022-11-20T05:09:36;43.70;;;22.17;;
53666;SDS011;39568;51.026;5.468;2022-11-20T05:12:03;50.47;;;23.75;;
53666;SDS011;39568;51.026;5.468;2022-11-20T05:14:30;74.28;;;26.05;;
53666;SDS011;39568;51.026;5.468;2022-11-20T05:16:57;68.22;;;24.88;;
53666;SDS011;39568;51.026;5.468;2022-11-20T05:19:23;51.10;;;26.23;;
53666;SDS011;39568;51.026;5.468;2022-11-20T05:21:50;57.00;;;24.35;;
53666;SDS011;39568;51.026;5.468;2022-11-20T05:24:18;55.22;;;26.65;;
53666;SDS011;39568;51.026;5.468;2022-11-20T05:26:45;61.67;;;24.60;;
53666;SDS011;39568;51.026;5.468;2022-11-20T05:29:11;63.03;;;27.35;;
53666;SDS011;39568;51.026;5.468;2022-11-20T05:31:39;80.45;;;29.27;;
53666;SDS011;39568;51.026;5.468;2022-11-20T05:34:06;74.88;;;30.45;;
53666;SDS011;39568;51.026;5.468;2022-11-20T05:36:33;77.03;;;30.52;;
53666;SDS011;39568;51.026;5.468;2022-11-20T05:39:00;68.57;;;24.42;;
53666;SDS011;39568;51.026;5.468;2022-11-20T05:41:28;61.03;;;29.20;;
53666;SDS011;39568;51.026;5.468;2022-11-20T05:43:55;74.43;;;32.20;;
53666;SDS011;39568;51.026;5.468;2022-11-20T05:46:22;96.22;;;35.25;;
53666;SDS011;39568;51.026;5.468;2022-11-20T05:48:48;68.50;;;29.98;;
53666;SDS011;39568;51.026;5.468;2022-11-20T05:51:16;76.63;;;31.80;;
53666;SDS011;39568;51.026;5.468;2022-11-20T05:53:44;76.72;;;30.27;;
53666;SDS011;39568;51.026;5.468;2022-11-20T05:56:12;67.50;;;30.30;;
53666;SDS011;39568;51.026;5.468;2022-11-20T05:58:41;82.50;;;30.80;;
53666;SDS011;39568;51.026;5.468;2022-11-20T06:01:09;85.55;;;33.60;;
53666;SDS011;39568;51.026;5.468;2022-11-20T06:03:37;77.88;;;30.90;;
53666;SDS011;39568;51.026;5.468;2022-11-20T06:06:05;79.03;;;32.15;;
53666;SDS011;39568;51.026;5.468;2022-11-20T06:08:32;84.22;;;33.80;;
53666;SDS011;39568;51.026;5.468;2022-11-20T06:11:02;73.25;;;33.03;;
53666;SDS011;39568;51.026;5.468;2022-11-20T06:13:29;84.50;;;34.53;;
53666;SDS011;39568;51.026;5.468;2022-11-20T06:15:57;86.95;;;33.72;;
53666;SDS011;39568;51.026;5.468;2022-11-20T06:18:25;75.47;;;33.17;;
53666;SDS011;39568;51.026;5.468;2022-11-20T06:20:58;79.05;;;30.67;;
53666;SDS011;39568;51.026;5.468;2022-11-20T06:23:27;87.57;;;33.17;;
53666;SDS011;39568;51.026;5.468;2022-11-20T06:25:54;72.72;;;31.73;;
53666;SDS011;39568;51.026;5.468;2022-11-20T06:28:21;74.95;;;32.28;;
53666;SDS011;39568;51.026;5.468;2022-11-20T06:30:48;75.63;;;32.08;;
53666;SDS011;39568;51.026;5.468;2022-11-20T06:33:16;92.45;;;31.25;;
53666;SDS011;39568;51.026;5.468;2022-11-20T06:35:42;78.47;;;31.95;;
53666;SDS011;39568;51.026;5.468;2022-11-20T06:38:09;62.47;;;26.45;;
53666;SDS011;39568;51.026;5.468;2022-11-20T06:40:35;85.63;;;30.45;;
53666;SDS011;39568;51.026;5.468;2022-11-20T06:43:05;107.53;;;54.90;;
53666;SDS011;39568;51.026;5.468;2022-11-20T06:45:32;73.65;;;32.67;;
53666;SDS011;39568;51.026;5.468;2022-11-20T06:47:58;85.45;;;33.05;;
53666;SDS011;39568;51.026;5.468;2022-11-20T06:50:26;72.82;;;31.15;;
53666;SDS011;39568;51.026;5.468;2022-11-20T06:52:53;89.18;;;32.20;;
53666;SDS011;39568;51.026;5.468;2022-11-20T06:55:20;72.13;;;32.05;;
53666;SDS011;39568;51.026;5.468;2022-11-20T06:57:46;131.68;;;64.70;;
53666;SDS011;39568;51.026;5.468;2022-11-20T07:00:13;67.03;;;33.42;;
53666;SDS011;39568;51.026;5.468;2022-11-20T07:02:40;78.30;;;29.48;;
53666;SDS011;39568;51.026;5.468;2022-11-20T07:05:21;64.38;;;26.73;;
53666;SDS011;39568;51.026;5.468;2022-11-20T07:07:49;67.40;;;26.60;;
53666;SDS011;39568;51.026;5.468;2022-11-20T07:10:16;70.00;;;28.52;;
53666;SDS011;39568;51.026;5.468;2022-11-20T07:12:48;68.40;;;30.48;;
53666;SDS011;39568;51.026;5.468;2022-11-20T07:15:15;70.55;;;27.77;;
53666;SDS011;39568;51.026;5.468;2022-11-20T07:17:42;65.60;;;29.60;;
53666;SDS011;39568;51.026;5.468;2022-11-20T07:20:09;68.88;;;29.30;;
53666;SDS011;39568;51.026;5.468;2022-11-20T07:22:36;67.30;;;29.88;;
53666;SDS011;39568;51.026;5.468;2022-11-20T07:25:05;67.88;;;29.02;;
53666;SDS011;39568;51.026;5.468;2022-11-20T07:27:32;68.45;;;28.00;;
53666;SDS011;39568;51.026;5.468;2022-11-20T07:29:59;63.47;;;27.40;;
53666;SDS011;39568;51.026;5.468;2022-11-20T07:32:25;66.03;;;26.90;;
53666;SDS011;39568;51.026;5.468;2022-11-20T07:34:52;63.13;;;28.75;;
53666;SDS011;39568;51.026;5.468;2022-11-20T07:37:19;68.80;;;29.02;;
53666;SDS011;39568;51.026;5.468;2022-11-20T07:39:45;63.05;;;28.25;;
53666;SDS011;39568;51.026;5.468;2022-11-20T07:42:13;67.30;;;30.77;;
53666;SDS011;39568;51.026;5.468;2022-11-20T07:44:40;59.60;;;27.48;;
53666;SDS011;39568;51.026;5.468;2022-11-20T07:47:07;71.80;;;28.73;;
53666;SDS011;39568;51.026;5.468;2022-11-20T07:49:33;68.63;;;27.70;;
53666;SDS011;39568;51.026;5.468;2022-11-20T07:52:00;67.38;;;27.80;;
53666;SDS011;39568;51.026;5.468;2022-11-20T07:54:26;65.20;;;26.33;;
53666;SDS011;39568;51.026;5.468;2022-11-20T07:56:53;73.55;;;29.27;;
53666;SDS011;39568;51.026;5.468;2022-11-20T07:59:21;59.35;;;26.88;;
53666;SDS011;39568;51.026;5.468;2022-11-20T08:01:48;61.58;;;26.85;;
53666;SDS011;39568;51.026;5.468;2022-11-20T08:04:15;77.30;;;30.33;;
53666;SDS011;39568;51.026;5.468;2022-11-20T08:06:41;75.88;;;30.02;;
53666;SDS011;39568;51.026;5.468;2022-11-20T08:09:08;74.25;;;30.63;;
53666;SDS011;39568;51.026;5.468;2022-11-20T08:11:35;73.05;;;30.25;;
53666;SDS011;39568;51.026;5.468;2022-11-20T08:14:19;65.03;;;29.60;;
53666;SDS011;39568;51.026;5.468;2022-11-20T08:16:47;70.00;;;27.75;;
53666;SDS011;39568;51.026;5.468;2022-11-20T08:19:15;67.70;;;27.90;;
53666;SDS011;39568;51.026;5.468;2022-11-20T08:21:43;66.57;;;28.08;;
53666;SDS011;39568;51.026;5.468;2022-11-20T08:24:10;65.90;;;28.25;;
53666;SDS011;39568;51.026;5.468;2022-11-20T08:26:38;62.75;;;27.63;;
53666;SDS011;39568;51.026;5.468;2022-11-20T08:29:05;72.97;;;31.05;;
53666;SDS011;39568;51.026;5.468;2022-11-20T08:31:32;66.60;;;29.40;;
53666;SDS011;39568;51.026;5.468;2022-11-20T08:34:00;74.95;;;30.48;;
53666;SDS011;39568;51.026;5.468;2022-11-20T08:36:27;69.07;;;29.92;;
53666;SDS011;39568;51.026;5.468;2022-11-20T08:38:54;66.50;;;29.67;;
53666;SDS011;39568;51.026;5.468;2022-11-20T08:41:21;71.97;;;30.77;;
53666;SDS011;39568;51.026;5.468;2022-11-20T08:43:52;75.65;;;33.28;;
53666;SDS011;39568;51.026;5.468;2022-11-20T08:46:21;62.20;;;28.58;;
53666;SDS011;39568;51.026;5.468;2022-11-20T08:48:48;68.28;;;29.85;;
53666;SDS011;39568;51.026;5.468;2022-11-20T08:51:16;70.00;;;29.17;;
53666;SDS011;39568;51.026;5.468;2022-11-20T08:53:44;81.68;;;28.65;;
53666;SDS011;39568;51.026;5.468;2022-11-20T08:56:11;64.07;;;25.60;;
53666;SDS011;39568;51.026;5.468;2022-11-20T08:58:38;75.10;;;28.45;;
53666;SDS011;39568;51.026;5.468;2022-11-20T09:01:05;67.00;;;28.77;;
53666;SDS011;39568;51.026;5.468;2022-11-20T09:03:31;59.05;;;24.42;;
53666;SDS011;39568;51.026;5.468;2022-11-20T09:05:58;64.63;;;28.30;;
53666;SDS011;39568;51.026;5.468;2022-11-20T09:08:27;66.43;;;27.25;;
53666;SDS011;39568;51.026;5.468;2022-11-20T09:10:55;63.70;;;26.73;;
53666;SDS011;39568;51.026;5.468;2022-11-20T09:13:23;57.95;;;25.10;;
53666;SDS011;39568;51.026;5.468;2022-11-20T09:15:52;59.90;;;24.83;;
53666;SDS011;39568;51.026;5.468;2022-11-20T09:18:20;57.63;;;25.42;;
53666;SDS011;39568;51.026;5.468;2022-11-20T09:20:46;73.15;;;28.63;;
53666;SDS011;39568;51.026;5.468;2022-11-20T09:23:13;69.75;;;28.23;;
53666;SDS011;39568;51.026;5.468;2022-11-20T09:25:42;65.35;;;26.48;;
53666;SDS011;39568;51.026;5.468;2022-11-20T09:28:08;52.90;;;24.85;;
53666;SDS011;39568;51.026;5.468;2022-11-20T09:30:35;73.93;;;26.20;;
53666;SDS011;39568;51.026;5.468;2022-11-20T09:33:03;60.40;;;24.52;;
53666;SDS011;39568;51.026;5.468;2022-11-20T09:35:30;60.40;;;25.58;;
53666;SDS011;39568;51.026;5.468;2022-11-20T09:37:57;60.85;;;26.05;;
53666;SDS011;39568;51.026;5.468;2022-11-20T09:40:24;63.47;;;26.42;;
53666;SDS011;39568;51.026;5.468;2022-11-20T09:42:56;55.35;;;27.30;;
53666;SDS011;39568;51.026;5.468;2022-11-20T09:45:28;70.07;;;26.00;;
53666;SDS011;39568;51.026;5.468;2022-11-20T09:48:14;64.88;;;26.20;;
53666;SDS011;39568;51.026;5.468;2022-11-20T09:50:52;59.75;;;25.65;;
53666;SDS011;39568;51.026;5.468;2022-11-20T09:53:25;62.70;;;26.75;;
53666;SDS011;39568;51.026;5.468;2022-11-20T09:56:00;57.60;;;26.45;;
53666;SDS011;39568;51.026;5.468;2022-11-20T09:58:31;58.00;;;24.73;;
53666;SDS011;39568;51.026;5.468;2022-11-20T10:01:03;68.97;;;26.55;;
53666;SDS011;39568;51.026;5.468;2022-11-20T10:03:37;56.47;;;25.40;;
53666;SDS011;39568;51.026;5.468;2022-11-20T10:06:12;63.85;;;26.25;;
53666;SDS011;39568;51.026;5.468;2022-11-20T10:08:42;66.00;;;26.23;;
53666;SDS011;39568;51.026;5.468;2022-11-20T10:11:13;61.00;;;25.35;;
53666;SDS011;39568;51.026;5.468;2022-11-20T10:13:48;63.63;;;26.50;;
53666;SDS011;39568;51.026;5.468;2022-11-20T10:16:23;72.75;;;28.23;;
53666;SDS011;39568;51.026;5.468;2022-11-20T10:19:01;61.13;;;26.33;;
53666;SDS011;39568;51.026;5.468;2022-11-20T10:21:38;58.78;;;22.92;;
53666;SDS011;39568;51.026;5.468;2022-11-20T10:24:26;64.88;;;25.23;;
53666;SDS011;39568;51.026;5.468;2022-11-20T10:27:13;61.15;;;25.90;;
53666;SDS011;39568;51.026;5.468;2022-11-20T10:30:09;77.72;;;28.25;;
53666;SDS011;39568;51.026;5.468;2022-11-20T10:32:39;68.32;;;26.67;;
53666;SDS011;39568;51.026;5.468;2022-11-20T10:35:09;80.93;;;28.92;;
53666;SDS011;39568;51.026;5.468;2022-11-20T10:37:44;69.28;;;26.73;;
53666;SDS011;39568;51.026;5.468;2022-11-20T10:40:18;72.53;;;28.30;;
53666;SDS011;39568;51.026;5.468;2022-11-20T10:42:48;71.63;;;28.42;;
53666;SDS011;39568;51.026;5.468;2022-11-20T10:45:31;72.30;;;27.73;;
53666;SDS011;39568;51.026;5.468;2022-11-20T10:48:07;87.30;;;28.45;;
53666;SDS011;39568;51.026;5.468;2022-11-20T10:50:40;84.88;;;29.00;;
53666;SDS011;39568;51.026;5.468;2022-11-20T10:53:31;83.47;;;28.40;;
53666;SDS011;39568;51.026;5.468;2022-11-20T10:56:09;84.90;;;27.10;;
53666;SDS011;39568;51.026;5.468;2022-11-20T10:58:48;94.07;;;31.83;;
53666;SDS011;39568;51.026;5.468;2022-11-20T11:01:28;82.97;;;30.38;;
53666;SDS011;39568;51.026;5.468;2022-11-20T11:03:55;78.60;;;30.17;;
53666;SDS011;39568;51.026;5.468;2022-11-20T11:06:25;73.85;;;26.88;;
53666;SDS011;39568;51.026;5.468;2022-11-20T11:08:58;81.57;;;30.85;;
53666;SDS011;39568;51.026;5.468;2022-11-20T11:11:30;88.63;;;29.05;;
53666;SDS011;39568;51.026;5.468;2022-11-20T11:14:05;88.35;;;29.73;;
53666;SDS011;39568;51.026;5.468;2022-11-20T11:16:34;88.88;;;30.95;;
53666;SDS011;39568;51.026;5.468;2022-11-20T11:19:05;79.72;;;31.77;;
53666;SDS011;39568;51.026;5.468;2022-11-20T11:21:32;93.38;;;31.45;;
53666;SDS011;39568;51.026;5.468;2022-11-20T11:23:59;70.68;;;26.83;;
53666;SDS011;39568;51.026;5.468;2022-11-20T11:26:28;78.88;;;29.92;;
53666;SDS011;39568;51.026;5.468;2022-11-20T11:28:55;91.05;;;30.42;;
53666;SDS011;39568;51.026;5.468;2022-11-20T11:31:23;73.35;;;25.70;;
53666;SDS011;39568;51.026;5.468;2022-11-20T11:34:03;79.20;;;25.90;;
53666;SDS011;39568;51.026;5.468;2022-11-20T11:36:30;75.57;;;26.35;;
53666;SDS011;39568;51.026;5.468;2022-11-20T11:38:59;75.90;;;27.25;;
53666;SDS011;39568;51.026;5.468;2022-11-20T11:41:28;70.78;;;25.20;;
53666;SDS011;39568;51.026;5.468;2022-11-20T11:44:00;71.88;;;27.90;;
53666;SDS011;39568;51.026;5.468;2022-11-20T11:46:56;83.70;;;27.92;;
53666;SDS011;39568;51.026;5.468;2022-11-20T11:49:25;67.63;;;27.45;;
53666;SDS011;39568;51.026;5.468;2022-11-20T11:52:00;57.67;;;23.10;;
53666;SDS011;39568;51.026;5.468;2022-11-20T11:54:33;69.43;;;25.55;;
53666;SDS011;39568;51.026;5.468;2022-11-20T11:57:05;83.10;;;29.63;;
53666;SDS011;39568;51.026;5.468;2022-11-20T11:59:52;66.50;;;24.67;;
53666;SDS011;39568;51.026;5.468;2022-11-20T12:02:29;61.33;;;23.85;;
53666;SDS011;39568;51.026;5.468;2022-11-20T12:05:04;65.43;;;24.17;;
53666;SDS011;39568;51.026;5.468;2022-11-20T12:07:41;59.58;;;24.75;;
53666;SDS011;39568;51.026;5.468;2022-11-20T12:10:14;55.15;;;25.08;;
53666;SDS011;39568;51.026;5.468;2022-11-20T12:12:46;67.10;;;24.77;;
53666;SDS011;39568;51.026;5.468;2022-11-20T12:15:20;64.30;;;25.00;;
53666;SDS011;39568;51.026;5.468;2022-11-20T12:17:52;62.97;;;26.95;;
53666;SDS011;39568;51.026;5.468;2022-11-20T12:20:20;59.85;;;24.45;;
53666;SDS011;39568;51.026;5.468;2022-11-20T12:22:52;58.38;;;23.30;;
53666;SDS011;39568;51.026;5.468;2022-11-20T12:28:06;64.90;;;22.58;;
53666;SDS011;39568;51.026;5.468;2022-11-20T12:33:51;53.72;;;19.80;;
53666;SDS011;39568;51.026;5.468;2022-11-20T12:36:30;52.22;;;20.17;;
53666;SDS011;39568;51.026;5.468;2022-11-20T12:39:07;50.25;;;19.95;;
53666;SDS011;39568;51.026;5.468;2022-11-20T12:41:53;41.53;;;20.05;;
53666;SDS011;39568;51.026;5.468;2022-11-20T12:44:54;57.53;;;19.27;;
53666;SDS011;39568;51.026;5.468;2022-11-20T12:47:38;42.10;;;17.65;;
53666;SDS011;39568;51.026;5.468;2022-11-20T12:50:22;46.15;;;18.85;;
53666;SDS011;39568;51.026;5.468;2022-11-20T12:52:59;36.83;;;18.23;;
53666;SDS011;39568;51.026;5.468;2022-11-20T12:55:32;46.85;;;17.00;;
53666;SDS011;39568;51.026;5.468;2022-11-20T12:58:08;41.22;;;14.77;;
53666;SDS011;39568;51.026;5.468;2022-11-20T13:00:47;27.77;;;12.68;;
53666;SDS011;39568;51.026;5.468;2022-11-20T13:03:38;27.98;;;13.60;;
53666;SDS011;39568;51.026;5.468;2022-11-20T13:06:13;33.92;;;13.30;;
53666;SDS011;39568;51.026;5.468;2022-11-20T13:08:45;27.52;;;12.48;;
53666;SDS011;39568;51.026;5.468;2022-11-20T13:11:18;36.47;;;13.73;;
53666;SDS011;39568;51.026;5.468;2022-11-20T13:13:56;35.95;;;13.23;;
53666;SDS011;39568;51.026;5.468;2022-11-20T13:16:37;26.65;;;12.07;;
53666;SDS011;39568;51.026;5.468;2022-11-20T13:19:09;26.20;;;9.63;;
53666;SDS011;39568;51.026;5.468;2022-11-20T13:21:38;13.15;;;8.38;;
53666;SDS011;39568;51.026;5.468;2022-11-20T13:24:21;19.60;;;9.05;;
53666;SDS011;39568;51.026;5.468;2022-11-20T13:26:59;14.18;;;6.47;;
53666;SDS011;39568;51.026;5.468;2022-11-20T13:29:27;14.77;;;7.78;;
53666;SDS011;39568;51.026;5.468;2022-11-20T13:32:02;17.65;;;5.57;;
53666;SDS011;39568;51.026;5.468;2022-11-20T13:34:30;11.15;;;4.93;;
53666;SDS011;39568;51.026;5.468;2022-11-20T13:36:58;22.38;;;6.82;;
53666;SDS011;39568;51.026;5.468;2022-11-20T13:39:30;10.32;;;3.55;;
53666;SDS011;39568;51.026;5.468;2022-11-20T13:41:59;3.65;;;2.80;;
53666;SDS011;39568;51.026;5.468;2022-11-20T13:44:29;4.60;;;2.63;;
53666;SDS011;39568;51.026;5.468;2022-11-20T13:46:59;4.47;;;2.78;;
53666;SDS011;39568;51.026;5.468;2022-11-20T13:49:26;8.38;;;4.13;;
53666;SDS011;39568;51.026;5.468;2022-11-20T13:52:01;2.67;;;2.13;;
53666;SDS011;39568;51.026;5.468;2022-11-20T13:54:54;10.82;;;2.33;;
53666;SDS011;39568;51.026;5.468;2022-11-20T13:57:37;8.18;;;2.22;;
53666;SDS011;39568;51.026;5.468;2022-11-20T14:00:14;6.40;;;1.98;;
53666;SDS011;39568;51.026;5.468;2022-11-20T14:02:42;4.43;;;1.85;;
53666;SDS011;39568;51.026;5.468;2022-11-20T14:05:15;8.50;;;1.95;;
53666;SDS011;39568;51.026;5.468;2022-11-20T14:07:46;10.05;;;2.28;;
53666;SDS011;39568;51.026;5.468;2022-11-20T14:10:23;7.05;;;2.00;;
53666;SDS011;39568;51.026;5.468;2022-11-20T14:12:51;5.35;;;1.83;;
53666;SDS011;39568;51.026;5.468;2022-11-20T14:15:24;2.53;;;2.22;;
53666;SDS011;39568;51.026;5.468;2022-11-20T14:17:53;8.57;;;2.58;;
53666;SDS011;39568;51.026;5.468;2022-11-20T14:20:19;6.38;;;2.72;;
53666;SDS011;39568;51.026;5.468;2022-11-20T14:22:50;8.30;;;3.07;;
53666;SDS011;39568;51.026;5.468;2022-11-20T14:25:18;10.68;;;3.30;;
53666;SDS011;39568;51.026;5.468;2022-11-20T14:27:52;8.48;;;3.38;;
53666;SDS011;39568;51.026;5.468;2022-11-20T14:30:20;6.40;;;2.50;;
53666;SDS011;39568;51.026;5.468;2022-11-20T14:32:48;8.35;;;2.80;;
53666;SDS011;39568;51.026;5.468;2022-11-20T14:35:18;9.25;;;3.67;;
53666;SDS011;39568;51.026;5.468;2022-11-20T14:37:49;10.82;;;5.30;;
53666;SDS011;39568;51.026;5.468;2022-11-20T14:40:26;6.57;;;2.63;;
53666;SDS011;39568;51.026;5.468;2022-11-20T14:42:56;9.13;;;2.80;;
53666;SDS011;39568;51.026;5.468;2022-11-20T14:45:24;19.60;;;5.20;;
53666;SDS011;39568;51.026;5.468;2022-11-20T14:47:52;3.13;;;2.85;;
53666;SDS011;39568;51.026;5.468;2022-11-20T14:50:22;10.43;;;3.25;;
53666;SDS011;39568;51.026;5.468;2022-11-20T14:52:51;8.43;;;5.18;;